sensor_id;sensor_type;location;lat;lon;timestamp;temperature;humidity
62912;DHT22;49111;51.028;4.218;2022-07-23T00:01:23;17.60;99.90
62912;DHT22;49111;51.028;4.218;2022-07-23T00:03:49;17.60;99.90
62912;DHT22;49111;51.028;4.218;2022-07-23T00:06:15;17.50;99.90
62912;DHT22;49111;51.028;4.218;2022-07-23T00:08:41;17.50;99.90
62912;DHT22;49111;51.028;4.218;2022-07-23T00:11:07;17.50;99.90
62912;DHT22;49111;51.028;4.218;2022-07-23T00:13:33;17.40;99.90
62912;DHT22;49111;51.028;4.218;2022-07-23T00:15:59;17.40;99.90
62912;DHT22;49111;51.028;4.218;2022-07-23T00:18:25;17.40;99.90
62912;DHT22;49111;51.028;4.218;2022-07-23T00:20:50;17.30;99.90
62912;DHT22;49111;51.028;4.218;2022-07-23T00:23:17;17.30;99.90
62912;DHT22;49111;51.028;4.218;2022-07-23T00:25:43;17.30;99.90
62912;DHT22;49111;51.028;4.218;2022-07-23T00:28:10;17.30;99.90
62912;DHT22;49111;51.028;4.218;2022-07-23T00:30:36;17.30;99.90
62912;DHT22;49111;51.028;4.218;2022-07-23T00:33:05;17.30;99.90
62912;DHT22;49111;51.028;4.218;2022-07-23T00:35:33;17.20;99.90
62912;DHT22;49111;51.028;4.218;2022-07-23T00:38:00;17.20;99.90
62912;DHT22;49111;51.028;4.218;2022-07-23T00:40:27;17.10;99.90
62912;DHT22;49111;51.028;4.218;2022-07-23T00:42:53;17.10;99.90
62912;DHT22;49111;51.028;4.218;2022-07-23T00:45:20;17.10;99.90
62912;DHT22;49111;51.028;4.218;2022-07-23T00:47:45;17.00;99.90
62912;DHT22;49111;51.028;4.218;2022-07-23T00:50:12;17.00;99.90
62912;DHT22;49111;51.028;4.218;2022-07-23T00:52:39;17.00;99.90
62912;DHT22;49111;51.028;4.218;2022-07-23T00:55:06;17.10;99.90
62912;DHT22;49111;51.028;4.218;2022-07-23T00:57:32;17.00;99.90
62912;DHT22;49111;51.028;4.218;2022-07-23T00:59:58;17.00;99.90
62912;DHT22;49111;51.028;4.218;2022-07-23T01:02:25;17.00;99.90
62912;DHT22;49111;51.028;4.218;2022-07-23T01:04:51;17.00;99.90
62912;DHT22;49111;51.028;4.218;2022-07-23T01:07:18;17.00;99.90
62912;DHT22;49111;51.028;4.218;2022-07-23T01:09:45;16.90;99.90
62912;DHT22;49111;51.028;4.218;2022-07-23T01:12:12;16.90;99.90
62912;DHT22;49111;51.028;4.218;2022-07-23T01:14:38;16.90;99.90
62912;DHT22;49111;51.028;4.218;2022-07-23T01:17:04;16.80;99.90
62912;DHT22;49111;51.028;4.218;2022-07-23T01:19:30;16.80;99.90
62912;DHT22;49111;51.028;4.218;2022-07-23T01:21:58;16.80;99.90
62912;DHT22;49111;51.028;4.218;2022-07-23T01:24:27;16.80;99.90
62912;DHT22;49111;51.028;4.218;2022-07-23T01:27:04;16.80;99.90
62912;DHT22;49111;51.028;4.218;2022-07-23T01:29:32;16.80;99.90
62912;DHT22;49111;51.028;4.218;2022-07-23T01:32:01;16.80;99.90
62912;DHT22;49111;51.028;4.218;2022-07-23T01:34:26;16.70;99.90
62912;DHT22;49111;51.028;4.218;2022-07-23T01:36:53;16.70;99.90
62912;DHT22;49111;51.028;4.218;2022-07-23T01:39:18;16.70;99.90
62912;DHT22;49111;51.028;4.218;2022-07-23T01:41:44;16.60;99.90
62912;DHT22;49111;51.028;4.218;2022-07-23T01:44:10;16.60;99.90
62912;DHT22;49111;51.028;4.218;2022-07-23T01:46:39;16.60;99.90
62912;DHT22;49111;51.028;4.218;2022-07-23T01:49:05;16.60;99.90
62912;DHT22;49111;51.028;4.218;2022-07-23T01:52:02;16.50;99.90
62912;DHT22;49111;51.028;4.218;2022-07-23T01:54:36;16.50;99.90
62912;DHT22;49111;51.028;4.218;2022-07-23T01:57:05;16.40;99.90
62912;DHT22;49111;51.028;4.218;2022-07-23T01:59:31;16.40;99.90
62912;DHT22;49111;51.028;4.218;2022-07-23T02:01:57;16.40;99.90
62912;DHT22;49111;51.028;4.218;2022-07-23T02:04:25;16.40;99.90
62912;DHT22;49111;51.028;4.218;2022-07-23T02:06:51;16.40;99.90
62912;DHT22;49111;51.028;4.218;2022-07-23T02:09:18;16.30;99.90
62912;DHT22;49111;51.028;4.218;2022-07-23T02:11:46;16.30;99.90
62912;DHT22;49111;51.028;4.218;2022-07-23T02:14:12;16.30;99.90
62912;DHT22;49111;51.028;4.218;2022-07-23T02:16:38;16.30;99.90
62912;DHT22;49111;51.028;4.218;2022-07-23T02:19:04;16.30;99.90
62912;DHT22;49111;51.028;4.218;2022-07-23T02:21:29;16.20;99.90
62912;DHT22;49111;51.028;4.218;2022-07-23T02:23:55;16.20;99.90
62912;DHT22;49111;51.028;4.218;2022-07-23T02:26:21;16.20;99.90
62912;DHT22;49111;51.028;4.218;2022-07-23T02:28:50;16.20;99.90
62912;DHT22;49111;51.028;4.218;2022-07-23T02:31:16;16.20;99.90
62912;DHT22;49111;51.028;4.218;2022-07-23T02:33:42;16.10;99.90
62912;DHT22;49111;51.028;4.218;2022-07-23T02:36:08;16.10;99.90
62912;DHT22;49111;51.028;4.218;2022-07-23T02:38:34;16.10;99.90
62912;DHT22;49111;51.028;4.218;2022-07-23T02:41:02;16.10;99.90
62912;DHT22;49111;51.028;4.218;2022-07-23T02:43:28;16.10;99.90
62912;DHT22;49111;51.028;4.218;2022-07-23T02:45:54;16.00;99.90
62912;DHT22;49111;51.028;4.218;2022-07-23T02:48:20;16.00;99.90
62912;DHT22;49111;51.028;4.218;2022-07-23T02:50:47;16.00;99.90
62912;DHT22;49111;51.028;4.218;2022-07-23T02:53:17;16.00;99.90
62912;DHT22;49111;51.028;4.218;2022-07-23T02:55:42;16.00;99.90
62912;DHT22;49111;51.028;4.218;2022-07-23T02:58:09;16.00;99.90
62912;DHT22;49111;51.028;4.218;2022-07-23T03:00:35;15.90;99.90
62912;DHT22;49111;51.028;4.218;2022-07-23T03:03:00;15.90;99.90
62912;DHT22;49111;51.028;4.218;2022-07-23T03:05:26;15.90;99.90
62912;DHT22;49111;51.028;4.218;2022-07-23T03:07:52;15.80;99.90
62912;DHT22;49111;51.028;4.218;2022-07-23T03:10:19;15.80;99.90
62912;DHT22;49111;51.028;4.218;2022-07-23T03:12:45;15.80;99.90
62912;DHT22;49111;51.028;4.218;2022-07-23T03:15:11;15.80;99.90
62912;DHT22;49111;51.028;4.218;2022-07-23T03:17:37;15.80;99.90
62912;DHT22;49111;51.028;4.218;2022-07-23T03:20:03;15.80;99.90
62912;DHT22;49111;51.028;4.218;2022-07-23T03:22:29;15.70;99.90
62912;DHT22;49111;51.028;4.218;2022-07-23T03:24:55;15.70;99.90
62912;DHT22;49111;51.028;4.218;2022-07-23T03:27:27;15.70;99.90
62912;DHT22;49111;51.028;4.218;2022-07-23T03:29:55;15.70;99.90
62912;DHT22;49111;51.028;4.218;2022-07-23T03:32:22;15.70;99.90
62912;DHT22;49111;51.028;4.218;2022-07-23T03:34:48;15.70;99.90
62912;DHT22;49111;51.028;4.218;2022-07-23T03:37:15;15.60;99.90
62912;DHT22;49111;51.028;4.218;2022-07-23T03:39:40;15.60;99.90
62912;DHT22;49111;51.028;4.218;2022-07-23T03:42:07;15.60;99.90
62912;DHT22;49111;51.028;4.218;2022-07-23T03:44:33;15.60;99.90
62912;DHT22;49111;51.028;4.218;2022-07-23T03:47:01;15.60;99.90
62912;DHT22;49111;51.028;4.218;2022-07-23T03:49:27;15.50;99.90
62912;DHT22;49111;51.028;4.218;2022-07-23T03:51:53;15.50;99.90
62912;DHT22;49111;51.028;4.218;2022-07-23T03:54:18;15.50;99.90
62912;DHT22;49111;51.028;4.218;2022-07-23T03:56:45;15.50;99.90
62912;DHT22;49111;51.028;4.218;2022-07-23T03:59:11;15.50;99.90
62912;DHT22;49111;51.028;4.218;2022-07-23T04:01:37;15.50;99.90
62912;DHT22;49111;51.028;4.218;2022-07-23T04:04:03;15.50;99.90
62912;DHT22;49111;51.028;4.218;2022-07-23T04:06:29;15.40;99.90
62912;DHT22;49111;51.028;4.218;2022-07-23T04:08:56;15.40;99.90
62912;DHT22;49111;51.028;4.218;2022-07-23T04:11:22;15.40;99.90
62912;DHT22;49111;51.028;4.218;2022-07-23T04:13:48;15.40;99.90
62912;DHT22;49111;51.028;4.218;2022-07-23T04:16:14;15.40;99.90
62912;DHT22;49111;51.028;4.218;2022-07-23T04:18:39;15.40;99.90
62912;DHT22;49111;51.028;4.218;2022-07-23T04:21:17;15.40;99.90
62912;DHT22;49111;51.028;4.218;2022-07-23T04:23:44;15.50;99.90
62912;DHT22;49111;51.028;4.218;2022-07-23T04:26:11;15.50;99.90
62912;DHT22;49111;51.028;4.218;2022-07-23T04:28:37;15.50;99.90
62912;DHT22;49111;51.028;4.218;2022-07-23T04:31:03;15.50;99.90
62912;DHT22;49111;51.028;4.218;2022-07-23T04:33:30;15.50;99.90
62912;DHT22;49111;51.028;4.218;2022-07-23T04:35:58;15.50;99.90
62912;DHT22;49111;51.028;4.218;2022-07-23T04:38:24;15.50;99.90
62912;DHT22;49111;51.028;4.218;2022-07-23T04:40:54;15.50;99.90
62912;DHT22;49111;51.028;4.218;2022-07-23T04:43:19;15.50;99.90
62912;DHT22;49111;51.028;4.218;2022-07-23T04:45:48;15.60;99.90
62912;DHT22;49111;51.028;4.218;2022-07-23T04:48:14;15.60;99.90
62912;DHT22;49111;51.028;4.218;2022-07-23T04:50:40;15.60;99.90
62912;DHT22;49111;51.028;4.218;2022-07-23T04:53:14;15.60;99.90
62912;DHT22;49111;51.028;4.218;2022-07-23T04:55:40;15.60;99.90
62912;DHT22;49111;51.028;4.218;2022-07-23T04:58:06;15.60;99.90
62912;DHT22;49111;51.028;4.218;2022-07-23T05:00:32;15.60;99.90
62912;DHT22;49111;51.028;4.218;2022-07-23T05:02:58;15.70;99.90
62912;DHT22;49111;51.028;4.218;2022-07-23T05:05:24;15.70;99.90
62912;DHT22;49111;51.028;4.218;2022-07-23T05:07:51;15.70;99.90
62912;DHT22;49111;51.028;4.218;2022-07-23T05:10:17;15.70;99.90
62912;DHT22;49111;51.028;4.218;2022-07-23T05:12:43;15.70;99.90
62912;DHT22;49111;51.028;4.218;2022-07-23T05:15:09;15.70;99.90
62912;DHT22;49111;51.028;4.218;2022-07-23T05:17:34;15.80;99.90
62912;DHT22;49111;51.028;4.218;2022-07-23T05:20:04;15.90;99.90
62912;DHT22;49111;51.028;4.218;2022-07-23T05:22:30;15.90;99.90
62912;DHT22;49111;51.028;4.218;2022-07-23T05:24:56;16.10;99.90
62912;DHT22;49111;51.028;4.218;2022-07-23T05:27:21;16.20;99.90
62912;DHT22;49111;51.028;4.218;2022-07-23T05:29:47;16.30;99.90
62912;DHT22;49111;51.028;4.218;2022-07-23T05:32:13;16.40;99.90
62912;DHT22;49111;51.028;4.218;2022-07-23T05:34:45;16.50;99.90
62912;DHT22;49111;51.028;4.218;2022-07-23T05:37:11;16.60;99.90
62912;DHT22;49111;51.028;4.218;2022-07-23T05:39:36;16.60;99.90
62912;DHT22;49111;51.028;4.218;2022-07-23T05:42:02;16.70;99.90
62912;DHT22;49111;51.028;4.218;2022-07-23T05:44:28;16.80;99.90
62912;DHT22;49111;51.028;4.218;2022-07-23T05:46:54;16.90;99.90
62912;DHT22;49111;51.028;4.218;2022-07-23T05:49:25;17.00;99.90
62912;DHT22;49111;51.028;4.218;2022-07-23T05:51:51;17.00;99.90
62912;DHT22;49111;51.028;4.218;2022-07-23T05:54:26;17.00;99.90
62912;DHT22;49111;51.028;4.218;2022-07-23T05:56:51;17.10;99.90
62912;DHT22;49111;51.028;4.218;2022-07-23T05:59:18;17.20;99.90
62912;DHT22;49111;51.028;4.218;2022-07-23T06:01:43;17.40;99.90
62912;DHT22;49111;51.028;4.218;2022-07-23T06:04:11;17.50;99.90
62912;DHT22;49111;51.028;4.218;2022-07-23T06:06:41;17.60;99.90
62912;DHT22;49111;51.028;4.218;2022-07-23T06:09:09;17.70;99.90
62912;DHT22;49111;51.028;4.218;2022-07-23T06:11:36;17.70;99.90
62912;DHT22;49111;51.028;4.218;2022-07-23T06:14:02;17.70;99.90
62912;DHT22;49111;51.028;4.218;2022-07-23T06:16:41;17.70;99.90
62912;DHT22;49111;51.028;4.218;2022-07-23T06:19:07;17.70;99.90
62912;DHT22;49111;51.028;4.218;2022-07-23T06:21:33;17.70;99.90
62912;DHT22;49111;51.028;4.218;2022-07-23T06:23:59;17.80;99.90
62912;DHT22;49111;51.028;4.218;2022-07-23T06:26:24;17.80;99.90
62912;DHT22;49111;51.028;4.218;2022-07-23T06:28:50;17.70;99.90
62912;DHT22;49111;51.028;4.218;2022-07-23T06:31:16;17.70;99.90
62912;DHT22;49111;51.028;4.218;2022-07-23T06:33:42;17.70;99.90
62912;DHT22;49111;51.028;4.218;2022-07-23T06:36:08;17.80;99.90
62912;DHT22;49111;51.028;4.218;2022-07-23T06:38:34;17.70;99.90
62912;DHT22;49111;51.028;4.218;2022-07-23T06:41:00;17.60;99.90
62912;DHT22;49111;51.028;4.218;2022-07-23T06:43:26;17.60;99.90
62912;DHT22;49111;51.028;4.218;2022-07-23T06:45:54;17.70;99.90
62912;DHT22;49111;51.028;4.218;2022-07-23T06:48:20;17.80;99.90
62912;DHT22;49111;51.028;4.218;2022-07-23T06:50:47;17.80;99.90
62912;DHT22;49111;51.028;4.218;2022-07-23T06:53:13;17.70;99.90
62912;DHT22;49111;51.028;4.218;2022-07-23T06:55:41;17.80;99.90
62912;DHT22;49111;51.028;4.218;2022-07-23T06:58:06;17.80;99.90
62912;DHT22;49111;51.028;4.218;2022-07-23T07:00:34;17.80;99.90
62912;DHT22;49111;51.028;4.218;2022-07-23T07:03:00;17.90;99.90
62912;DHT22;49111;51.028;4.218;2022-07-23T07:05:26;18.00;99.90
62912;DHT22;49111;51.028;4.218;2022-07-23T07:07:54;17.90;99.90
62912;DHT22;49111;51.028;4.218;2022-07-23T07:10:20;17.90;99.90
62912;DHT22;49111;51.028;4.218;2022-07-23T07:12:46;17.90;99.90
62912;DHT22;49111;51.028;4.218;2022-07-23T07:15:12;17.90;99.90
62912;DHT22;49111;51.028;4.218;2022-07-23T07:17:39;18.10;99.90
62912;DHT22;49111;51.028;4.218;2022-07-23T07:20:05;18.10;99.90
62912;DHT22;49111;51.028;4.218;2022-07-23T07:22:31;18.30;99.90
62912;DHT22;49111;51.028;4.218;2022-07-23T07:24:57;18.30;99.90
62912;DHT22;49111;51.028;4.218;2022-07-23T07:27:23;18.40;99.90
62912;DHT22;49111;51.028;4.218;2022-07-23T07:29:49;18.40;99.90
62912;DHT22;49111;51.028;4.218;2022-07-23T07:32:15;18.40;99.90
62912;DHT22;49111;51.028;4.218;2022-07-23T07:34:41;18.50;99.90
62912;DHT22;49111;51.028;4.218;2022-07-23T07:37:07;18.60;99.90
62912;DHT22;49111;51.028;4.218;2022-07-23T07:39:33;18.60;99.90
62912;DHT22;49111;51.028;4.218;2022-07-23T07:41:59;18.50;99.90
62912;DHT22;49111;51.028;4.218;2022-07-23T07:44:24;18.60;99.90
62912;DHT22;49111;51.028;4.218;2022-07-23T07:46:50;18.70;99.90
62912;DHT22;49111;51.028;4.218;2022-07-23T07:49:17;18.70;99.90
62912;DHT22;49111;51.028;4.218;2022-07-23T07:51:45;18.80;99.90
62912;DHT22;49111;51.028;4.218;2022-07-23T07:54:12;18.90;99.90
62912;DHT22;49111;51.028;4.218;2022-07-23T07:56:37;19.00;99.90
62912;DHT22;49111;51.028;4.218;2022-07-23T07:59:03;19.00;99.90
62912;DHT22;49111;51.028;4.218;2022-07-23T08:01:29;19.00;99.90
62912;DHT22;49111;51.028;4.218;2022-07-23T08:03:55;19.00;99.90
62912;DHT22;49111;51.028;4.218;2022-07-23T08:06:21;19.30;99.90
62912;DHT22;49111;51.028;4.218;2022-07-23T08:08:47;19.40;99.90
62912;DHT22;49111;51.028;4.218;2022-07-23T08:11:13;19.40;99.90
62912;DHT22;49111;51.028;4.218;2022-07-23T08:13:39;19.40;99.90
62912;DHT22;49111;51.028;4.218;2022-07-23T08:16:05;19.60;99.90
62912;DHT22;49111;51.028;4.218;2022-07-23T08:18:37;19.70;99.90
62912;DHT22;49111;51.028;4.218;2022-07-23T08:21:03;19.70;99.90
62912;DHT22;49111;51.028;4.218;2022-07-23T08:23:31;19.80;99.90
62912;DHT22;49111;51.028;4.218;2022-07-23T08:25:57;19.70;99.90
62912;DHT22;49111;51.028;4.218;2022-07-23T08:28:26;19.80;99.90
62912;DHT22;49111;51.028;4.218;2022-07-23T08:30:52;19.80;99.90
62912;DHT22;49111;51.028;4.218;2022-07-23T08:33:19;19.80;99.90
62912;DHT22;49111;51.028;4.218;2022-07-23T08:35:49;19.90;99.90
62912;DHT22;49111;51.028;4.218;2022-07-23T08:38:18;19.90;99.90
62912;DHT22;49111;51.028;4.218;2022-07-23T08:40:51;20.00;99.90
62912;DHT22;49111;51.028;4.218;2022-07-23T08:43:31;20.00;99.90
62912;DHT22;49111;51.028;4.218;2022-07-23T08:45:59;20.10;99.80
62912;DHT22;49111;51.028;4.218;2022-07-23T08:48:34;20.10;99.90
62912;DHT22;49111;51.028;4.218;2022-07-23T08:51:02;20.20;99.00
62912;DHT22;49111;51.028;4.218;2022-07-23T08:53:29;20.20;99.10
62912;DHT22;49111;51.028;4.218;2022-07-23T08:55:57;20.20;98.70
62912;DHT22;49111;51.028;4.218;2022-07-23T08:58:24;20.40;98.30
62912;DHT22;49111;51.028;4.218;2022-07-23T09:00:50;20.50;97.90
62912;DHT22;49111;51.028;4.218;2022-07-23T09:03:25;20.60;97.10
62912;DHT22;49111;51.028;4.218;2022-07-23T09:05:52;20.60;98.00
62912;DHT22;49111;51.028;4.218;2022-07-23T09:11:02;20.90;96.10
62912;DHT22;49111;51.028;4.218;2022-07-23T09:15:59;21.20;94.50
62912;DHT22;49111;51.028;4.218;2022-07-23T09:21:09;21.40;93.90
62912;DHT22;49111;51.028;4.218;2022-07-23T09:26:26;21.60;95.30
62912;DHT22;49111;51.028;4.218;2022-07-23T09:31:43;22.00;94.10
62912;DHT22;49111;51.028;4.218;2022-07-23T09:34:18;22.00;93.60
62912;DHT22;49111;51.028;4.218;2022-07-23T09:36:46;22.10;93.50
62912;DHT22;49111;51.028;4.218;2022-07-23T09:39:13;22.20;92.70
62912;DHT22;49111;51.028;4.218;2022-07-23T09:41:47;22.30;92.80
62912;DHT22;49111;51.028;4.218;2022-07-23T09:44:18;22.30;92.80
62912;DHT22;49111;51.028;4.218;2022-07-23T09:46:48;22.40;93.10
62912;DHT22;49111;51.028;4.218;2022-07-23T09:49:20;22.50;92.10
62912;DHT22;49111;51.028;4.218;2022-07-23T09:51:55;22.50;93.00
62912;DHT22;49111;51.028;4.218;2022-07-23T09:54:33;22.60;92.00
62912;DHT22;49111;51.028;4.218;2022-07-23T09:57:11;22.60;91.20
62912;DHT22;49111;51.028;4.218;2022-07-23T09:59:43;22.70;90.80
62912;DHT22;49111;51.028;4.218;2022-07-23T10:02:11;22.80;91.10
62912;DHT22;49111;51.028;4.218;2022-07-23T10:05:07;22.80;90.60
62912;DHT22;49111;51.028;4.218;2022-07-23T10:08:02;22.80;90.20
62912;DHT22;49111;51.028;4.218;2022-07-23T10:10:47;22.80;90.70
62912;DHT22;49111;51.028;4.218;2022-07-23T10:13:39;22.90;88.80
62912;DHT22;49111;51.028;4.218;2022-07-23T10:16:26;22.90;89.50
62912;DHT22;49111;51.028;4.218;2022-07-23T10:18:52;23.10;89.30
62912;DHT22;49111;51.028;4.218;2022-07-23T10:26:43;23.20;89.00
62912;DHT22;49111;51.028;4.218;2022-07-23T10:34:47;23.50;87.70
62912;DHT22;49111;51.028;4.218;2022-07-23T10:37:31;23.70;88.40
62912;DHT22;49111;51.028;4.218;2022-07-23T10:40:18;23.70;84.40
62912;DHT22;49111;51.028;4.218;2022-07-23T10:42:46;23.60;83.10
62912;DHT22;49111;51.028;4.218;2022-07-23T10:45:32;23.80;85.80
62912;DHT22;49111;51.028;4.218;2022-07-23T10:48:18;24.10;85.50
62912;DHT22;49111;51.028;4.218;2022-07-23T10:51:09;24.20;82.00
62912;DHT22;49111;51.028;4.218;2022-07-23T10:53:59;24.40;82.80
62912;DHT22;49111;51.028;4.218;2022-07-23T10:56:50;24.60;83.10
62912;DHT22;49111;51.028;4.218;2022-07-23T10:59:29;24.80;80.60
62912;DHT22;49111;51.028;4.218;2022-07-23T11:02:21;24.90;80.00
62912;DHT22;49111;51.028;4.218;2022-07-23T11:04:49;24.90;80.30
62912;DHT22;49111;51.028;4.218;2022-07-23T11:07:16;25.00;80.00
62912;DHT22;49111;51.028;4.218;2022-07-23T11:09:43;25.20;77.80
62912;DHT22;49111;51.028;4.218;2022-07-23T11:14:58;25.20;80.20
62912;DHT22;49111;51.028;4.218;2022-07-23T11:17:24;25.10;80.80
62912;DHT22;49111;51.028;4.218;2022-07-23T11:22:40;25.20;80.50
62912;DHT22;49111;51.028;4.218;2022-07-23T11:28:17;25.50;80.30
62912;DHT22;49111;51.028;4.218;2022-07-23T11:30:44;25.50;81.80
62912;DHT22;49111;51.028;4.218;2022-07-23T11:35:41;25.30;77.30
62912;DHT22;49111;51.028;4.218;2022-07-23T11:40:43;25.40;80.90
62912;DHT22;49111;51.028;4.218;2022-07-23T11:43:10;25.40;76.60
62912;DHT22;49111;51.028;4.218;2022-07-23T11:45:39;25.60;77.80
62912;DHT22;49111;51.028;4.218;2022-07-23T11:48:07;25.40;77.10
62912;DHT22;49111;51.028;4.218;2022-07-23T11:50:34;25.50;79.00
62912;DHT22;49111;51.028;4.218;2022-07-23T11:53:00;25.70;76.40
62912;DHT22;49111;51.028;4.218;2022-07-23T11:55:27;26.00;76.70
62912;DHT22;49111;51.028;4.218;2022-07-23T11:57:54;26.10;78.30
62912;DHT22;49111;51.028;4.218;2022-07-23T12:00:26;26.30;75.10
62912;DHT22;49111;51.028;4.218;2022-07-23T12:03:00;26.50;75.40
62912;DHT22;49111;51.028;4.218;2022-07-23T12:05:32;26.50;74.80
62912;DHT22;49111;51.028;4.218;2022-07-23T12:08:00;26.40;72.20
62912;DHT22;49111;51.028;4.218;2022-07-23T12:10:33;26.50;71.60
62912;DHT22;49111;51.028;4.218;2022-07-23T12:13:02;26.60;70.50
62912;DHT22;49111;51.028;4.218;2022-07-23T12:15:33;26.60;73.80
62912;DHT22;49111;51.028;4.218;2022-07-23T12:18:03;26.70;72.60
62912;DHT22;49111;51.028;4.218;2022-07-23T12:20:32;26.70;72.90
62912;DHT22;49111;51.028;4.218;2022-07-23T12:23:00;26.70;74.00
62912;DHT22;49111;51.028;4.218;2022-07-23T12:25:32;26.70;72.80
62912;DHT22;49111;51.028;4.218;2022-07-23T12:28:11;26.70;72.00
62912;DHT22;49111;51.028;4.218;2022-07-23T12:30:46;26.70;73.10
62912;DHT22;49111;51.028;4.218;2022-07-23T12:33:14;26.70;71.60
62912;DHT22;49111;51.028;4.218;2022-07-23T12:35:43;26.80;73.00
62912;DHT22;49111;51.028;4.218;2022-07-23T12:38:16;27.00;71.00
62912;DHT22;49111;51.028;4.218;2022-07-23T12:40:49;27.20;70.40
62912;DHT22;49111;51.028;4.218;2022-07-23T12:43:27;27.20;69.70
62912;DHT22;49111;51.028;4.218;2022-07-23T12:45:56;27.20;70.80
62912;DHT22;49111;51.028;4.218;2022-07-23T12:51:04;27.10;70.70
62912;DHT22;49111;51.028;4.218;2022-07-23T12:53:47;27.00;71.50
62912;DHT22;49111;51.028;4.218;2022-07-23T12:56:14;27.10;74.10
62912;DHT22;49111;51.028;4.218;2022-07-23T13:01:07;27.30;74.70
62912;DHT22;49111;51.028;4.218;2022-07-23T13:03:41;27.30;71.30
62912;DHT22;49111;51.028;4.218;2022-07-23T13:06:09;27.70;68.60
62912;DHT22;49111;51.028;4.218;2022-07-23T13:08:37;27.80;71.10
62912;DHT22;49111;51.028;4.218;2022-07-23T13:11:05;27.60;69.50
62912;DHT22;49111;51.028;4.218;2022-07-23T13:13:32;27.70;70.40
62912;DHT22;49111;51.028;4.218;2022-07-23T13:15:59;27.70;71.00
62912;DHT22;49111;51.028;4.218;2022-07-23T13:18:26;27.70;68.90
62912;DHT22;49111;51.028;4.218;2022-07-23T13:20:52;27.70;68.70
62912;DHT22;49111;51.028;4.218;2022-07-23T13:23:18;27.70;68.10
62912;DHT22;49111;51.028;4.218;2022-07-23T13:25:45;27.70;70.60
62912;DHT22;49111;51.028;4.218;2022-07-23T13:28:13;27.70;68.70
62912;DHT22;49111;51.028;4.218;2022-07-23T13:30:39;27.70;67.90
62912;DHT22;49111;51.028;4.218;2022-07-23T13:33:05;27.80;68.00
62912;DHT22;49111;51.028;4.218;2022-07-23T13:35:33;27.90;70.80
62912;DHT22;49111;51.028;4.218;2022-07-23T13:37:59;28.00;71.80
62912;DHT22;49111;51.028;4.218;2022-07-23T13:40:25;28.00;69.80
62912;DHT22;49111;51.028;4.218;2022-07-23T13:42:50;28.20;68.60
62912;DHT22;49111;51.028;4.218;2022-07-23T13:45:16;28.50;68.80
62912;DHT22;49111;51.028;4.218;2022-07-23T13:47:42;28.30;68.00
62912;DHT22;49111;51.028;4.218;2022-07-23T13:50:08;28.30;67.90
62912;DHT22;49111;51.028;4.218;2022-07-23T13:52:34;28.10;66.20
62912;DHT22;49111;51.028;4.218;2022-07-23T13:55:04;28.10;67.10
62912;DHT22;49111;51.028;4.218;2022-07-23T13:57:31;27.90;70.20
62912;DHT22;49111;51.028;4.218;2022-07-23T13:59:58;27.80;69.90
62912;DHT22;49111;51.028;4.218;2022-07-23T14:02:24;28.00;69.00
62912;DHT22;49111;51.028;4.218;2022-07-23T14:04:50;28.30;67.30
62912;DHT22;49111;51.028;4.218;2022-07-23T14:07:17;28.70;67.60
62912;DHT22;49111;51.028;4.218;2022-07-23T14:09:43;28.70;65.30
62912;DHT22;49111;51.028;4.218;2022-07-23T14:12:09;28.70;65.60
62912;DHT22;49111;51.028;4.218;2022-07-23T14:14:35;28.70;64.80
62912;DHT22;49111;51.028;4.218;2022-07-23T14:17:01;28.70;65.80
62912;DHT22;49111;51.028;4.218;2022-07-23T14:19:27;28.50;66.40
62912;DHT22;49111;51.028;4.218;2022-07-23T14:21:53;28.50;65.80
62912;DHT22;49111;51.028;4.218;2022-07-23T14:24:19;28.50;68.10
62912;DHT22;49111;51.028;4.218;2022-07-23T14:26:44;28.60;66.80
62912;DHT22;49111;51.028;4.218;2022-07-23T14:29:11;28.70;65.60
62912;DHT22;49111;51.028;4.218;2022-07-23T14:31:37;28.60;66.60
62912;DHT22;49111;51.028;4.218;2022-07-23T14:34:03;28.60;65.30
62912;DHT22;49111;51.028;4.218;2022-07-23T14:36:29;28.70;67.30
62912;DHT22;49111;51.028;4.218;2022-07-23T14:38:55;28.80;66.50
62912;DHT22;49111;51.028;4.218;2022-07-23T14:41:20;28.90;66.30
62912;DHT22;49111;51.028;4.218;2022-07-23T14:43:46;28.70;65.60
62912;DHT22;49111;51.028;4.218;2022-07-23T14:46:12;28.60;67.80
62912;DHT22;49111;51.028;4.218;2022-07-23T14:48:38;28.80;69.70
62912;DHT22;49111;51.028;4.218;2022-07-23T14:51:04;28.90;69.60
62912;DHT22;49111;51.028;4.218;2022-07-23T14:53:30;29.00;68.00
62912;DHT22;49111;51.028;4.218;2022-07-23T14:55:56;29.20;67.70
62912;DHT22;49111;51.028;4.218;2022-07-23T14:58:25;29.30;65.50
62912;DHT22;49111;51.028;4.218;2022-07-23T15:00:51;29.30;64.50
62912;DHT22;49111;51.028;4.218;2022-07-23T15:03:17;29.50;65.40
62912;DHT22;49111;51.028;4.218;2022-07-23T15:05:43;29.60;67.00
62912;DHT22;49111;51.028;4.218;2022-07-23T15:08:09;29.50;66.40
62912;DHT22;49111;51.028;4.218;2022-07-23T15:10:35;29.70;64.90
62912;DHT22;49111;51.028;4.218;2022-07-23T15:13:01;29.80;63.70
62912;DHT22;49111;51.028;4.218;2022-07-23T15:15:27;29.80;64.80
62912;DHT22;49111;51.028;4.218;2022-07-23T15:17:53;29.80;64.00
62912;DHT22;49111;51.028;4.218;2022-07-23T15:20:18;29.80;64.40
62912;DHT22;49111;51.028;4.218;2022-07-23T15:22:44;30.00;64.30
62912;DHT22;49111;51.028;4.218;2022-07-23T15:25:10;30.00;65.70
62912;DHT22;49111;51.028;4.218;2022-07-23T15:27:36;30.00;63.10
62912;DHT22;49111;51.028;4.218;2022-07-23T15:30:03;29.40;63.10
62912;DHT22;49111;51.028;4.218;2022-07-23T15:32:29;29.30;65.30
62912;DHT22;49111;51.028;4.218;2022-07-23T15:34:54;29.50;64.10
62912;DHT22;49111;51.028;4.218;2022-07-23T15:37:21;29.60;66.40
62912;DHT22;49111;51.028;4.218;2022-07-23T15:39:49;29.60;64.20
62912;DHT22;49111;51.028;4.218;2022-07-23T15:42:15;29.50;62.60
62912;DHT22;49111;51.028;4.218;2022-07-23T15:44:42;29.70;63.10
62912;DHT22;49111;51.028;4.218;2022-07-23T15:47:13;29.80;63.50
62912;DHT22;49111;51.028;4.218;2022-07-23T15:49:39;30.00;65.00
62912;DHT22;49111;51.028;4.218;2022-07-23T15:52:05;30.10;63.20
62912;DHT22;49111;51.028;4.218;2022-07-23T15:54:31;30.30;62.50
62912;DHT22;49111;51.028;4.218;2022-07-23T15:56:57;30.20;64.90
62912;DHT22;49111;51.028;4.218;2022-07-23T15:59:23;30.30;62.40
62912;DHT22;49111;51.028;4.218;2022-07-23T16:01:49;30.30;62.90
62912;DHT22;49111;51.028;4.218;2022-07-23T16:04:14;30.30;62.70
62912;DHT22;49111;51.028;4.218;2022-07-23T16:06:40;30.30;63.00
62912;DHT22;49111;51.028;4.218;2022-07-23T16:09:07;30.40;64.70
62912;DHT22;49111;51.028;4.218;2022-07-23T16:11:33;30.40;62.90
62912;DHT22;49111;51.028;4.218;2022-07-23T16:13:59;30.60;65.70
62912;DHT22;49111;51.028;4.218;2022-07-23T16:16:26;30.60;63.80
62912;DHT22;49111;51.028;4.218;2022-07-23T16:18:53;30.60;63.50